sensor_id;sensor_type;location;lat;lon;timestamp;pressure;altitude;pressure_sealevel;temperature;humidity
64908;BME280;69061;52.236;5.188;2024-01-07T00:01:08;101831.34;;;6.20;80.74
64908;BME280;69061;52.236;5.188;2024-01-07T00:03:34;101829.47;;;6.21;80.84
64908;BME280;69061;52.236;5.188;2024-01-07T00:06:02;101834.75;;;6.21;83.80
64908;BME280;69061;52.236;5.188;2024-01-07T00:08:29;101838.47;;;6.20;85.31
64908;BME280;69061;52.236;5.188;2024-01-07T00:10:56;101845.47;;;6.24;84.37
64908;BME280;69061;52.236;5.188;2024-01-07T00:13:22;101847.34;;;6.24;84.95
64908;BME280;69061;52.236;5.188;2024-01-07T00:15:49;101845.63;;;6.28;86.31
64908;BME280;69061;52.236;5.188;2024-01-07T00:18:15;101847.47;;;6.28;85.16
64908;BME280;69061;52.236;5.188;2024-01-07T00:20:42;101843.31;;;6.27;85.37
64908;BME280;69061;52.236;5.188;2024-01-07T00:23:10;101856.03;;;6.24;85.97
64908;BME280;69061;52.236;5.188;2024-01-07T00:25:37;101858.34;;;6.26;85.41
64908;BME280;69061;52.236;5.188;2024-01-07T00:28:04;101858.22;;;6.22;85.61
64908;BME280;69061;52.236;5.188;2024-01-07T00:30:30;101852.00;;;6.18;85.22
64908;BME280;69061;52.236;5.188;2024-01-07T00:32:57;101850.44;;;6.17;86.78
64908;BME280;69061;52.236;5.188;2024-01-07T00:35:24;101859.13;;;6.18;86.42
64908;BME280;69061;52.236;5.188;2024-01-07T00:37:50;101869.38;;;6.19;85.78
64908;BME280;69061;52.236;5.188;2024-01-07T00:40:18;101866.44;;;6.30;88.59
64908;BME280;69061;52.236;5.188;2024-01-07T00:42:45;101868.31;;;6.29;87.13
64908;BME280;69061;52.236;5.188;2024-01-07T00:45:12;101872.19;;;6.32;86.56
64908;BME280;69061;52.236;5.188;2024-01-07T00:47:38;101867.84;;;6.36;86.17
64908;BME280;69061;52.236;5.188;2024-01-07T00:50:05;101870.47;;;6.36;85.39
64908;BME280;69061;52.236;5.188;2024-01-07T00:52:32;101870.66;;;6.31;83.76
64908;BME280;69061;52.236;5.188;2024-01-07T00:54:59;101869.09;;;6.30;85.28
64908;BME280;69061;52.236;5.188;2024-01-07T00:57:30;101870.31;;;6.23;84.49
64908;BME280;69061;52.236;5.188;2024-01-07T00:59:56;101874.81;;;6.23;84.73
64908;BME280;69061;52.236;5.188;2024-01-07T01:02:23;101875.13;;;6.21;84.07
64908;BME280;69061;52.236;5.188;2024-01-07T01:04:51;101872.81;;;6.29;85.10
64908;BME280;69061;52.236;5.188;2024-01-07T01:07:17;101878.88;;;6.29;84.82
64908;BME280;69061;52.236;5.188;2024-01-07T01:09:44;101879.66;;;6.30;84.46
64908;BME280;69061;52.236;5.188;2024-01-07T01:12:11;101879.16;;;6.28;82.62
64908;BME280;69061;52.236;5.188;2024-01-07T01:14:39;101878.22;;;6.23;82.01
64908;BME280;69061;52.236;5.188;2024-01-07T01:17:05;101886.31;;;6.27;83.88
64908;BME280;69061;52.236;5.188;2024-01-07T01:19:32;101894.56;;;6.26;84.15
64908;BME280;69061;52.236;5.188;2024-01-07T01:21:59;101893.47;;;6.35;84.59
64908;BME280;69061;52.236;5.188;2024-01-07T01:24:27;101893.16;;;6.28;83.95
64908;BME280;69061;52.236;5.188;2024-01-07T01:26:53;101886.50;;;6.31;86.53
64908;BME280;69061;52.236;5.188;2024-01-07T01:29:20;101885.72;;;6.39;87.27
64908;BME280;69061;52.236;5.188;2024-01-07T01:31:48;101901.56;;;6.39;85.87
64908;BME280;69061;52.236;5.188;2024-01-07T01:34:14;101897.84;;;6.40;85.94
64908;BME280;69061;52.236;5.188;2024-01-07T01:36:41;101901.13;;;6.46;84.88
64908;BME280;69061;52.236;5.188;2024-01-07T01:39:07;101901.41;;;6.35;83.61
64908;BME280;69061;52.236;5.188;2024-01-07T01:41:34;101902.16;;;6.27;84.78
64908;BME280;69061;52.236;5.188;2024-01-07T01:44:01;101909.91;;;6.23;84.83
64908;BME280;69061;52.236;5.188;2024-01-07T01:46:28;101911.16;;;6.26;87.18
64908;BME280;69061;52.236;5.188;2024-01-07T01:48:57;101918.19;;;6.31;86.56
64908;BME280;69061;52.236;5.188;2024-01-07T01:51:25;101925.91;;;6.27;86.16
64908;BME280;69061;52.236;5.188;2024-01-07T01:53:52;101919.25;;;6.30;86.82
64908;BME280;69061;52.236;5.188;2024-01-07T01:56:20;101925.31;;;6.30;87.11
64908;BME280;69061;52.236;5.188;2024-01-07T01:58:49;101926.56;;;6.33;85.18
64908;BME280;69061;52.236;5.188;2024-01-07T02:01:15;101931.38;;;6.31;86.15
64908;BME280;69061;52.236;5.188;2024-01-07T02:03:42;101941.28;;;6.25;83.47
64908;BME280;69061;52.236;5.188;2024-01-07T02:06:10;101939.38;;;6.17;84.50
64908;BME280;69061;52.236;5.188;2024-01-07T02:08:37;101941.75;;;6.18;86.30
64908;BME280;69061;52.236;5.188;2024-01-07T02:11:24;101937.19;;;6.10;85.45
64908;BME280;69061;52.236;5.188;2024-01-07T02:13:51;101943.56;;;6.09;84.78
64908;BME280;69061;52.236;5.188;2024-01-07T02:16:18;101939.53;;;6.12;86.23
64908;BME280;69061;52.236;5.188;2024-01-07T02:18:45;101948.03;;;6.09;85.06
64908;BME280;69061;52.236;5.188;2024-01-07T02:21:14;101950.38;;;6.10;87.64
64908;BME280;69061;52.236;5.188;2024-01-07T02:23:40;101957.41;;;6.15;86.64
64908;BME280;69061;52.236;5.188;2024-01-07T02:26:09;101957.84;;;6.08;83.80
64908;BME280;69061;52.236;5.188;2024-01-07T02:28:37;101961.72;;;6.11;85.00
64908;BME280;69061;52.236;5.188;2024-01-07T02:31:03;101956.44;;;6.11;84.78
64908;BME280;69061;52.236;5.188;2024-01-07T02:33:30;101955.50;;;6.06;84.50
64908;BME280;69061;52.236;5.188;2024-01-07T02:35:58;101962.50;;;6.11;86.52
64908;BME280;69061;52.236;5.188;2024-01-07T02:38:25;101962.81;;;6.10;84.62
64908;BME280;69061;52.236;5.188;2024-01-07T02:40:51;101964.19;;;6.07;83.77
64908;BME280;69061;52.236;5.188;2024-01-07T02:43:20;101967.13;;;6.05;83.43
64908;BME280;69061;52.236;5.188;2024-01-07T02:45:46;101963.34;;;5.98;83.15
64908;BME280;69061;52.236;5.188;2024-01-07T02:48:13;101961.00;;;5.96;84.43
64908;BME280;69061;52.236;5.188;2024-01-07T02:50:40;101977.03;;;6.00;85.52
64908;BME280;69061;52.236;5.188;2024-01-07T02:53:06;101963.84;;;6.00;86.17
64908;BME280;69061;52.236;5.188;2024-01-07T02:55:35;101966.00;;;5.98;85.54
64908;BME280;69061;52.236;5.188;2024-01-07T02:58:01;101973.13;;;5.97;83.75
64908;BME280;69061;52.236;5.188;2024-01-07T03:00:31;101968.28;;;5.90;84.40
64908;BME280;69061;52.236;5.188;2024-01-07T03:02:57;101967.66;;;5.94;85.45
64908;BME280;69061;52.236;5.188;2024-01-07T03:05:24;101967.84;;;5.97;86.26
64908;BME280;69061;52.236;5.188;2024-01-07T03:07:50;101965.41;;;6.01;86.44
64908;BME280;69061;52.236;5.188;2024-01-07T03:10:17;101974.41;;;6.00;85.83
64908;BME280;69061;52.236;5.188;2024-01-07T03:12:44;101974.41;;;6.00;85.65
64908;BME280;69061;52.236;5.188;2024-01-07T03:15:10;101978.69;;;5.96;84.63
64908;BME280;69061;52.236;5.188;2024-01-07T03:17:38;101980.84;;;5.94;84.06
64908;BME280;69061;52.236;5.188;2024-01-07T03:20:06;101976.94;;;5.91;85.14
64908;BME280;69061;52.236;5.188;2024-01-07T03:22:33;101986.56;;;5.87;84.66
64908;BME280;69061;52.236;5.188;2024-01-07T03:25:00;101984.72;;;5.87;86.93
64908;BME280;69061;52.236;5.188;2024-01-07T03:27:26;101990.03;;;5.96;89.48
64908;BME280;69061;52.236;5.188;2024-01-07T03:29:53;101983.97;;;5.96;87.80
64908;BME280;69061;52.236;5.188;2024-01-07T03:32:19;101987.09;;;5.98;87.15
64908;BME280;69061;52.236;5.188;2024-01-07T03:34:47;101988.84;;;6.02;87.36
64908;BME280;69061;52.236;5.188;2024-01-07T03:37:14;101990.69;;;6.02;86.71
64908;BME280;69061;52.236;5.188;2024-01-07T03:39:40;101990.69;;;6.02;84.79
64908;BME280;69061;52.236;5.188;2024-01-07T03:42:07;102002.44;;;5.96;85.18
64908;BME280;69061;52.236;5.188;2024-01-07T03:44:36;101999.00;;;5.95;84.55
64908;BME280;69061;52.236;5.188;2024-01-07T03:47:03;102001.50;;;5.92;85.70
64908;BME280;69061;52.236;5.188;2024-01-07T03:49:30;102004.28;;;5.95;86.94
64908;BME280;69061;52.236;5.188;2024-01-07T03:51:58;102003.44;;;6.00;89.34
64908;BME280;69061;52.236;5.188;2024-01-07T03:54:24;102013.88;;;6.05;88.21
64908;BME280;69061;52.236;5.188;2024-01-07T03:56:51;102016.34;;;6.10;89.01
64908;BME280;69061;52.236;5.188;2024-01-07T03:59:18;102026.44;;;6.08;88.12
64908;BME280;69061;52.236;5.188;2024-01-07T04:01:44;102025.00;;;6.02;86.02
64908;BME280;69061;52.236;5.188;2024-01-07T04:04:11;102044.66;;;5.96;86.14
64908;BME280;69061;52.236;5.188;2024-01-07T04:06:37;102040.97;;;5.97;87.17
64908;BME280;69061;52.236;5.188;2024-01-07T04:09:05;102038.25;;;5.88;84.81
64908;BME280;69061;52.236;5.188;2024-01-07T04:11:33;102041.78;;;5.83;85.25
64908;BME280;69061;52.236;5.188;2024-01-07T04:14:04;102041.41;;;5.76;83.72
64908;BME280;69061;52.236;5.188;2024-01-07T04:16:31;102036.09;;;5.67;85.51
64908;BME280;69061;52.236;5.188;2024-01-07T04:18:58;102039.50;;;5.68;87.25
64908;BME280;69061;52.236;5.188;2024-01-07T04:21:24;102052.56;;;5.73;87.73
64908;BME280;69061;52.236;5.188;2024-01-07T04:23:51;102048.56;;;5.76;87.09
64908;BME280;69061;52.236;5.188;2024-01-07T04:26:18;102058.03;;;5.77;86.17
64908;BME280;69061;52.236;5.188;2024-01-07T04:28:45;102060.47;;;5.73;85.50
64908;BME280;69061;52.236;5.188;2024-01-07T04:31:12;102062.34;;;5.72;84.67
64908;BME280;69061;52.236;5.188;2024-01-07T04:33:38;102069.97;;;5.74;85.38
64908;BME280;69061;52.236;5.188;2024-01-07T04:36:06;102065.25;;;5.71;85.09
64908;BME280;69061;52.236;5.188;2024-01-07T04:38:33;102068.03;;;5.66;83.30
64908;BME280;69061;52.236;5.188;2024-01-07T04:40:59;102068.63;;;5.63;85.82
64908;BME280;69061;52.236;5.188;2024-01-07T04:43:27;102074.09;;;5.66;85.82
64908;BME280;69061;52.236;5.188;2024-01-07T04:45:55;102083.56;;;5.67;85.24
64908;BME280;69061;52.236;5.188;2024-01-07T04:48:21;102081.53;;;5.64;83.29
64908;BME280;69061;52.236;5.188;2024-01-07T04:50:48;102086.38;;;5.71;85.58
64908;BME280;69061;52.236;5.188;2024-01-07T04:53:15;102087.81;;;5.77;84.20
64908;BME280;69061;52.236;5.188;2024-01-07T04:55:42;102091.19;;;5.69;82.33
64908;BME280;69061;52.236;5.188;2024-01-07T04:58:08;102085.81;;;5.60;82.37
64908;BME280;69061;52.236;5.188;2024-01-07T05:00:36;102096.09;;;5.62;84.22
64908;BME280;69061;52.236;5.188;2024-01-07T05:03:03;102099.78;;;5.61;83.69
64908;BME280;69061;52.236;5.188;2024-01-07T05:05:30;102100.00;;;5.64;85.07
64908;BME280;69061;52.236;5.188;2024-01-07T05:07:56;102097.94;;;5.61;84.44
64908;BME280;69061;52.236;5.188;2024-01-07T05:10:25;102104.78;;;5.62;84.60
64908;BME280;69061;52.236;5.188;2024-01-07T05:12:52;102098.44;;;5.63;84.20
64908;BME280;69061;52.236;5.188;2024-01-07T05:15:19;102100.47;;;5.66;83.60
64908;BME280;69061;52.236;5.188;2024-01-07T05:17:46;102112.59;;;5.67;84.78
64908;BME280;69061;52.236;5.188;2024-01-07T05:20:15;102112.47;;;5.72;84.67
64908;BME280;69061;52.236;5.188;2024-01-07T05:22:42;102118.63;;;5.68;83.76
64908;BME280;69061;52.236;5.188;2024-01-07T05:25:08;102121.38;;;5.63;82.79
64908;BME280;69061;52.236;5.188;2024-01-07T05:27:35;102124.97;;;5.67;83.06
64908;BME280;69061;52.236;5.188;2024-01-07T05:30:02;102130.75;;;5.69;82.77
64908;BME280;69061;52.236;5.188;2024-01-07T05:32:29;102133.47;;;5.64;83.30
64908;BME280;69061;52.236;5.188;2024-01-07T05:34:57;102135.06;;;5.65;82.94
64908;BME280;69061;52.236;5.188;2024-01-07T05:37:24;102140.31;;;5.65;81.69
64908;BME280;69061;52.236;5.188;2024-01-07T05:39:50;102142.19;;;5.64;80.73
64908;BME280;69061;52.236;5.188;2024-01-07T05:42:17;102142.00;;;5.61;82.40
64908;BME280;69061;52.236;5.188;2024-01-07T05:44:44;102148.84;;;5.62;82.78
64908;BME280;69061;52.236;5.188;2024-01-07T05:47:10;102150.38;;;5.63;81.69
64908;BME280;69061;52.236;5.188;2024-01-07T05:49:37;102146.97;;;5.62;83.90
64908;BME280;69061;52.236;5.188;2024-01-07T05:52:05;102151.84;;;5.69;83.16
64908;BME280;69061;52.236;5.188;2024-01-07T05:54:32;102158.69;;;5.70;83.63
64908;BME280;69061;52.236;5.188;2024-01-07T05:56:58;102160.22;;;5.71;83.86
64908;BME280;69061;52.236;5.188;2024-01-07T05:59:25;102166.41;;;5.66;82.63
64908;BME280;69061;52.236;5.188;2024-01-07T06:01:56;102168.75;;;5.68;83.66
64908;BME280;69061;52.236;5.188;2024-01-07T06:04:23;102165.22;;;5.72;84.27
64908;BME280;69061;52.236;5.188;2024-01-07T06:06:50;102174.41;;;5.75;84.93
64908;BME280;69061;52.236;5.188;2024-01-07T06:09:18;102178.28;;;5.78;85.13
64908;BME280;69061;52.236;5.188;2024-01-07T06:11:44;102175.94;;;5.76;83.09
64908;BME280;69061;52.236;5.188;2024-01-07T06:14:11;102183.50;;;5.69;83.04
64908;BME280;69061;52.236;5.188;2024-01-07T06:16:38;102178.41;;;5.59;81.62
64908;BME280;69061;52.236;5.188;2024-01-07T06:19:05;102190.34;;;5.56;82.90
64908;BME280;69061;52.236;5.188;2024-01-07T06:21:32;102195.44;;;5.52;82.12
64908;BME280;69061;52.236;5.188;2024-01-07T06:23:58;102199.22;;;5.46;82.92
64908;BME280;69061;52.236;5.188;2024-01-07T06:26:26;102203.53;;;5.42;82.52
64908;BME280;69061;52.236;5.188;2024-01-07T06:28:53;102203.66;;;5.51;83.42
64908;BME280;69061;52.236;5.188;2024-01-07T06:31:19;102214.59;;;5.44;82.46
64908;BME280;69061;52.236;5.188;2024-01-07T06:33:46;102226.66;;;5.45;84.26
64908;BME280;69061;52.236;5.188;2024-01-07T06:36:12;102225.00;;;5.49;84.58
64908;BME280;69061;52.236;5.188;2024-01-07T06:38:39;102227.94;;;5.48;84.20
64908;BME280;69061;52.236;5.188;2024-01-07T06:41:06;102230.00;;;5.51;85.18
64908;BME280;69061;52.236;5.188;2024-01-07T06:43:34;102232.34;;;5.52;83.61
64908;BME280;69061;52.236;5.188;2024-01-07T06:46:00;102238.19;;;5.49;84.09
64908;BME280;69061;52.236;5.188;2024-01-07T06:48:27;102236.34;;;5.50;84.61
64908;BME280;69061;52.236;5.188;2024-01-07T06:50:53;102241.84;;;5.53;83.76
64908;BME280;69061;52.236;5.188;2024-01-07T06:53:20;102242.09;;;5.52;83.83
64908;BME280;69061;52.236;5.188;2024-01-07T06:55:47;102248.75;;;5.49;82.83
64908;BME280;69061;52.236;5.188;2024-01-07T06:58:14;102249.53;;;5.50;83.43
64908;BME280;69061;52.236;5.188;2024-01-07T07:00:42;102256.47;;;5.46;82.43
64908;BME280;69061;52.236;5.188;2024-01-07T07:03:08;102253.25;;;5.35;82.48
64908;BME280;69061;52.236;5.188;2024-01-07T07:05:35;102250.31;;;5.36;83.65
64908;BME280;69061;52.236;5.188;2024-01-07T07:08:02;102257.31;;;5.41;85.52
64908;BME280;69061;52.236;5.188;2024-01-07T07:10:31;102272.59;;;5.44;84.74
64908;BME280;69061;52.236;5.188;2024-01-07T07:12:58;102269.28;;;5.52;86.70
64908;BME280;69061;52.236;5.188;2024-01-07T07:15:24;102278.47;;;5.55;84.62
64908;BME280;69061;52.236;5.188;2024-01-07T07:17:53;102274.53;;;5.52;83.90
64908;BME280;69061;52.236;5.188;2024-01-07T07:20:20;102281.66;;;5.52;84.91
64908;BME280;69061;52.236;5.188;2024-01-07T07:22:46;102281.66;;;5.52;84.59
64908;BME280;69061;52.236;5.188;2024-01-07T07:25:13;102287.31;;;5.45;82.26
64908;BME280;69061;52.236;5.188;2024-01-07T07:27:39;102292.94;;;5.25;80.21
64908;BME280;69061;52.236;5.188;2024-01-07T07:30:07;102297.31;;;5.15;81.25
64908;BME280;69061;52.236;5.188;2024-01-07T07:32:34;102306.31;;;5.14;81.46
64908;BME280;69061;52.236;5.188;2024-01-07T07:35:02;102306.50;;;5.18;81.73
64908;BME280;69061;52.236;5.188;2024-01-07T07:37:29;102314.72;;;5.30;81.50
64908;BME280;69061;52.236;5.188;2024-01-07T07:39:55;102309.88;;;5.37;82.17
64908;BME280;69061;52.236;5.188;2024-01-07T07:42:22;102318.88;;;5.50;81.01
64908;BME280;69061;52.236;5.188;2024-01-07T07:44:49;102327.00;;;5.54;79.37
64908;BME280;69061;52.236;5.188;2024-01-07T07:47:15;102321.81;;;5.63;79.95
64908;BME280;69061;52.236;5.188;2024-01-07T07:49:42;102334.75;;;5.78;80.04
64908;BME280;69061;52.236;5.188;2024-01-07T07:52:10;102333.97;;;5.92;78.88
64908;BME280;69061;52.236;5.188;2024-01-07T07:54:39;102329.31;;;6.02;78.06
64908;BME280;69061;52.236;5.188;2024-01-07T07:57:06;102346.19;;;6.15;77.73
64908;BME280;69061;52.236;5.188;2024-01-07T07:59:33;102347.56;;;6.27;76.51
64908;BME280;69061;52.236;5.188;2024-01-07T08:02:01;102355.50;;;6.27;74.34
64908;BME280;69061;52.236;5.188;2024-01-07T08:04:27;102361.75;;;6.31;75.80
64908;BME280;69061;52.236;5.188;2024-01-07T08:06:54;102370.41;;;6.45;76.68
64908;BME280;69061;52.236;5.188;2024-01-07T08:09:23;102368.28;;;6.47;73.66
64908;BME280;69061;52.236;5.188;2024-01-07T08:11:51;102374.25;;;6.39;73.31
64908;BME280;69061;52.236;5.188;2024-01-07T08:14:17;102389.13;;;6.35;71.94
64908;BME280;69061;52.236;5.188;2024-01-07T08:16:44;102377.47;;;6.36;72.90
64908;BME280;69061;52.236;5.188;2024-01-07T08:19:10;102381.69;;;6.51;73.52
64908;BME280;69061;52.236;5.188;2024-01-07T08:21:37;102378.63;;;6.44;73.90
64908;BME280;69061;52.236;5.188;2024-01-07T08:24:04;102384.22;;;6.42;72.78
64908;BME280;69061;52.236;5.188;2024-01-07T08:26:32;102383.63;;;6.45;72.50
64908;BME280;69061;52.236;5.188;2024-01-07T08:28:58;102393.63;;;6.48;71.90
64908;BME280;69061;52.236;5.188;2024-01-07T08:31:25;102390.28;;;6.43;71.71
64908;BME280;69061;52.236;5.188;2024-01-07T08:33:52;102389.50;;;6.42;70.51
64908;BME280;69061;52.236;5.188;2024-01-07T08:36:18;102402.25;;;6.40;71.87
64908;BME280;69061;52.236;5.188;2024-01-07T08:38:45;102412.19;;;6.43;71.43
64908;BME280;69061;52.236;5.188;2024-01-07T08:41:15;102398.91;;;6.48;74.13
64908;BME280;69061;52.236;5.188;2024-01-07T08:43:43;102411.41;;;6.56;73.71
64908;BME280;69061;52.236;5.188;2024-01-07T08:46:12;102419.63;;;6.55;70.79
64908;BME280;69061;52.236;5.188;2024-01-07T08:48:39;102417.00;;;6.55;71.31
64908;BME280;69061;52.236;5.188;2024-01-07T08:51:06;102423.34;;;6.54;70.01
64908;BME280;69061;52.236;5.188;2024-01-07T08:53:33;102429.63;;;6.44;71.53
64908;BME280;69061;52.236;5.188;2024-01-07T08:56:00;102436.56;;;6.40;72.35
64908;BME280;69061;52.236;5.188;2024-01-07T08:58:26;102433.13;;;6.39;73.60
64908;BME280;69061;52.236;5.188;2024-01-07T09:00:54;102440.38;;;6.34;72.11
64908;BME280;69061;52.236;5.188;2024-01-07T09:03:21;102439.31;;;6.35;74.33
64908;BME280;69061;52.236;5.188;2024-01-07T09:05:47;102436.47;;;6.31;73.74
64908;BME280;69061;52.236;5.188;2024-01-07T09:08:14;102440.00;;;6.27;73.56
64908;BME280;69061;52.236;5.188;2024-01-07T09:10:41;102449.38;;;6.19;72.06
64908;BME280;69061;52.236;5.188;2024-01-07T09:13:07;102458.34;;;6.18;72.82
64908;BME280;69061;52.236;5.188;2024-01-07T09:15:34;102461.00;;;6.18;74.16
64908;BME280;69061;52.236;5.188;2024-01-07T09:18:02;102469.97;;;6.17;73.61
64908;BME280;69061;52.236;5.188;2024-01-07T09:20:28;102479.25;;;6.14;74.29
64908;BME280;69061;52.236;5.188;2024-01-07T09:22:55;102473.19;;;6.00;73.15
64908;BME280;69061;52.236;5.188;2024-01-07T09:25:22;102474.47;;;6.02;73.09
64908;BME280;69061;52.236;5.188;2024-01-07T09:27:48;102477.16;;;5.97;73.31
64908;BME280;69061;52.236;5.188;2024-01-07T09:30:15;102487.72;;;5.97;73.51
64908;BME280;69061;52.236;5.188;2024-01-07T09:32:42;102486.88;;;6.02;74.60
64908;BME280;69061;52.236;5.188;2024-01-07T09:35:10;102488.34;;;6.08;74.81
64908;BME280;69061;52.236;5.188;2024-01-07T09:37:37;102486.91;;;6.16;74.47
64908;BME280;69061;52.236;5.188;2024-01-07T09:40:05;102488.47;;;6.17;72.49
64908;BME280;69061;52.236;5.188;2024-01-07T09:42:32;102498.53;;;6.15;74.62
64908;BME280;69061;52.236;5.188;2024-01-07T09:45:00;102492.97;;;6.16;73.73
64908;BME280;69061;52.236;5.188;2024-01-07T09:47:28;102495.09;;;6.14;74.83
64908;BME280;69061;52.236;5.188;2024-01-07T09:49:55;102495.91;;;6.15;73.04
64908;BME280;69061;52.236;5.188;2024-01-07T09:52:25;102502.06;;;6.24;73.59
64908;BME280;69061;52.236;5.188;2024-01-07T09:54:55;102508.91;;;6.25;72.51
64908;BME280;69061;52.236;5.188;2024-01-07T09:57:25;102505.88;;;6.32;72.88
64908;BME280;69061;52.236;5.188;2024-01-07T09:59:52;102516.47;;;6.60;72.36
64908;BME280;69061;52.236;5.188;2024-01-07T10:02:19;102507.94;;;7.04;72.31
64908;BME280;69061;52.236;5.188;2024-01-07T10:04:47;102511.22;;;7.61;72.61
64908;BME280;69061;52.236;5.188;2024-01-07T10:07:14;102518.03;;;8.07;69.65
64908;BME280;69061;52.236;5.188;2024-01-07T10:09:43;102524.84;;;8.31;67.08
64908;BME280;69061;52.236;5.188;2024-01-07T10:12:10;102520.25;;;8.45;67.48
64908;BME280;69061;52.236;5.188;2024-01-07T10:14:38;102529.22;;;8.67;65.51
64908;BME280;69061;52.236;5.188;2024-01-07T10:17:14;102534.34;;;9.12;60.00
64908;BME280;69061;52.236;5.188;2024-01-07T10:19:43;102532.59;;;8.99;62.59
64908;BME280;69061;52.236;5.188;2024-01-07T10:22:12;102548.28;;;8.77;61.25
64908;BME280;69061;52.236;5.188;2024-01-07T10:24:39;102539.63;;;8.54;62.73
64908;BME280;69061;52.236;5.188;2024-01-07T10:27:08;102546.84;;;8.31;61.62
64908;BME280;69061;52.236;5.188;2024-01-07T10:29:34;102556.06;;;8.11;62.39
64908;BME280;69061;52.236;5.188;2024-01-07T10:32:01;102551.81;;;8.01;60.94
64908;BME280;69061;52.236;5.188;2024-01-07T10:34:31;102559.88;;;7.96;62.80
64908;BME280;69061;52.236;5.188;2024-01-07T10:36:59;102563.56;;;7.86;62.79
64908;BME280;69061;52.236;5.188;2024-01-07T10:39:26;102558.59;;;7.71;61.27
64908;BME280;69061;52.236;5.188;2024-01-07T10:41:53;102564.66;;;7.49;61.21
64908;BME280;69061;52.236;5.188;2024-01-07T10:44:25;102565.44;;;7.49;62.48
64908;BME280;69061;52.236;5.188;2024-01-07T10:46:53;102565.75;;;7.70;60.78
64908;BME280;69061;52.236;5.188;2024-01-07T10:49:21;102561.03;;;8.04;63.85
64908;BME280;69061;52.236;5.188;2024-01-07T10:51:54;102561.69;;;8.41;60.93
64908;BME280;69061;52.236;5.188;2024-01-07T10:54:24;102559.63;;;8.61;58.94
64908;BME280;69061;52.236;5.188;2024-01-07T10:56:58;102561.28;;;8.97;56.78
64908;BME280;69061;52.236;5.188;2024-01-07T10:59:26;102567.44;;;9.41;57.65
64908;BME280;69061;52.236;5.188;2024-01-07T11:01:53;102567.59;;;9.80;55.75
64908;BME280;69061;52.236;5.188;2024-01-07T11:04:23;102566.78;;;9.97;53.56
64908;BME280;69061;52.236;5.188;2024-01-07T11:06:59;102566.50;;;9.89;53.33
64908;BME280;69061;52.236;5.188;2024-01-07T11:09:35;102566.19;;;9.73;51.40
64908;BME280;69061;52.236;5.188;2024-01-07T11:12:04;102568.69;;;9.70;53.35
64908;BME280;69061;52.236;5.188;2024-01-07T11:14:37;102572.13;;;9.53;54.82
64908;BME280;69061;52.236;5.188;2024-01-07T11:17:05;102586.00;;;9.50;55.28
64908;BME280;69061;52.236;5.188;2024-01-07T11:19:32;102577.88;;;9.37;54.60
64908;BME280;69061;52.236;5.188;2024-01-07T11:22:22;102574.88;;;9.04;54.16
64908;BME280;69061;52.236;5.188;2024-01-07T11:24:50;102572.13;;;9.35;56.38
64908;BME280;69061;52.236;5.188;2024-01-07T11:27:17;102573.69;;;9.80;55.61
64908;BME280;69061;52.236;5.188;2024-01-07T11:29:52;102561.81;;;9.77;52.79
64908;BME280;69061;52.236;5.188;2024-01-07T11:32:22;102561.19;;;9.72;53.94
64908;BME280;69061;52.236;5.188;2024-01-07T11:34:48;102561.03;;;9.94;52.75
64908;BME280;69061;52.236;5.188;2024-01-07T11:37:18;102562.69;;;10.08;52.02
64908;BME280;69061;52.236;5.188;2024-01-07T11:39:48;102570.88;;;9.85;51.32
64908;BME280;69061;52.236;5.188;2024-01-07T11:42:15;102562.75;;;9.47;51.00
64908;BME280;69061;52.236;5.188;2024-01-07T11:44:47;102564.72;;;8.97;52.69
64908;BME280;69061;52.236;5.188;2024-01-07T11:47:15;102571.00;;;8.70;53.77
64908;BME280;69061;52.236;5.188;2024-01-07T11:49:42;102574.09;;;8.32;54.78
64908;BME280;69061;52.236;5.188;2024-01-07T11:52:08;102586.66;;;8.17;55.72
64908;BME280;69061;52.236;5.188;2024-01-07T11:54:36;102578.63;;;8.08;54.64
64908;BME280;69061;52.236;5.188;2024-01-07T11:57:03;102591.66;;;7.96;56.31
64908;BME280;69061;52.236;5.188;2024-01-07T11:59:30;102583.34;;;7.89;57.22
64908;BME280;69061;52.236;5.188;2024-01-07T12:01:59;102587.97;;;8.06;55.23
64908;BME280;69061;52.236;5.188;2024-01-07T12:04:25;102586.06;;;8.29;58.21
64908;BME280;69061;52.236;5.188;2024-01-07T12:06:53;102569.13;;;8.62;56.03
64908;BME280;69061;52.236;5.188;2024-01-07T12:09:19;102576.53;;;8.82;53.25
64908;BME280;69061;52.236;5.188;2024-01-07T12:11:46;102569.53;;;8.95;53.57
64908;BME280;69061;52.236;5.188;2024-01-07T12:14:16;102580.97;;;9.04;53.17
64908;BME280;69061;52.236;5.188;2024-01-07T12:16:43;102583.78;;;9.08;53.70
64908;BME280;69061;52.236;5.188;2024-01-07T12:19:11;102589.44;;;9.33;52.95
64908;BME280;69061;52.236;5.188;2024-01-07T12:21:38;102588.00;;;9.26;50.60
64908;BME280;69061;52.236;5.188;2024-01-07T12:24:05;102598.66;;;9.44;52.10
64908;BME280;69061;52.236;5.188;2024-01-07T12:26:32;102589.63;;;9.63;51.13
64908;BME280;69061;52.236;5.188;2024-01-07T12:29:00;102592.28;;;9.80;52.39
64908;BME280;69061;52.236;5.188;2024-01-07T12:31:29;102594.91;;;9.89;52.08
64908;BME280;69061;52.236;5.188;2024-01-07T12:33:56;102601.16;;;9.93;50.67
64908;BME280;69061;52.236;5.188;2024-01-07T12:36:24;102597.91;;;9.78;51.52
64908;BME280;69061;52.236;5.188;2024-01-07T12:38:52;102602.09;;;9.44;50.30
64908;BME280;69061;52.236;5.188;2024-01-07T12:41:19;102598.63;;;9.26;51.84
64908;BME280;69061;52.236;5.188;2024-01-07T12:43:46;102608.66;;;9.47;51.41
64908;BME280;69061;52.236;5.188;2024-01-07T12:46:13;102610.72;;;9.68;51.32
64908;BME280;69061;52.236;5.188;2024-01-07T12:48:40;102609.13;;;10.02;51.69
64908;BME280;69061;52.236;5.188;2024-01-07T12:51:06;102612.25;;;9.95;50.82
64908;BME280;69061;52.236;5.188;2024-01-07T12:53:34;102614.59;;;9.61;49.38
64908;BME280;69061;52.236;5.188;2024-01-07T12:56:01;102612.66;;;9.09;49.72
64908;BME280;69061;52.236;5.188;2024-01-07T12:58:28;102609.97;;;8.61;50.90
64908;BME280;69061;52.236;5.188;2024-01-07T13:00:55;102619.44;;;8.30;53.66